sensor_id;sensor_type;location;lat;lon;timestamp;pressure;altitude;pressure_sealevel;temperature;humidity
77279;BME280;66332;50.436;15.378;2023-04-03T04:02:28;99100.41;;;-0.40;66.71
77279;BME280;66332;50.436;15.378;2023-04-03T04:07:09;99095.25;;;-0.40;67.18
77279;BME280;66332;50.436;15.378;2023-04-03T04:11:50;99104.09;;;-0.44;67.35
77279;BME280;66332;50.436;15.378;2023-04-03T04:16:36;99113.31;;;-0.40;67.32
77279;BME280;66332;50.436;15.378;2023-04-03T04:21:17;99088.72;;;-0.61;67.97
77279;BME280;66332;50.436;15.378;2023-04-03T04:25:58;99114.44;;;-0.44;67.45
77279;BME280;66332;50.436;15.378;2023-04-03T04:30:39;99118.53;;;-0.56;65.89
77279;BME280;66332;50.436;15.378;2023-04-03T04:35:20;99097.28;;;-0.75;68.14
77279;BME280;66332;50.436;15.378;2023-04-03T04:40:01;99136.16;;;-0.62;68.30
77279;BME280;66332;50.436;15.378;2023-04-03T04:44:42;99143.38;;;-0.53;69.51
77279;BME280;66332;50.436;15.378;2023-04-03T04:49:23;99155.00;;;-0.46;68.48
77279;BME280;66332;50.436;15.378;2023-04-03T04:54:04;99160.28;;;-0.48;68.02
77279;BME280;66332;50.436;15.378;2023-04-03T04:58:45;99174.78;;;-0.45;67.03
77279;BME280;66332;50.436;15.378;2023-04-03T05:03:26;99172.19;;;-0.45;67.56
77279;BME280;66332;50.436;15.378;2023-04-03T05:08:07;99170.25;;;-0.41;67.57
77279;BME280;66332;50.436;15.378;2023-04-03T05:12:48;99181.38;;;-0.25;66.93
77279;BME280;66332;50.436;15.378;2023-04-03T05:17:30;99187.34;;;-0.09;66.99
77279;BME280;66332;50.436;15.378;2023-04-03T05:22:11;99185.13;;;-0.01;66.30
77279;BME280;66332;50.436;15.378;2023-04-03T05:26:52;99178.50;;;-0.05;66.49
77279;BME280;66332;50.436;15.378;2023-04-03T05:31:32;99180.28;;;0.09;66.12
77279;BME280;66332;50.436;15.378;2023-04-03T05:36:13;99191.19;;;0.14;64.91
77279;BME280;66332;50.436;15.378;2023-04-03T05:40:54;99186.59;;;0.34;65.24
77279;BME280;66332;50.436;15.378;2023-04-03T05:45:35;99201.19;;;0.35;64.81
77279;BME280;66332;50.436;15.378;2023-04-03T05:50:16;99217.28;;;0.54;64.82
77279;BME280;66332;50.436;15.378;2023-04-03T05:54:57;99216.63;;;0.65;64.02
77279;BME280;66332;50.436;15.378;2023-04-03T05:59:38;99222.28;;;0.86;62.95
77279;BME280;66332;50.436;15.378;2023-04-03T06:04:18;99230.38;;;0.94;62.32
77279;BME280;66332;50.436;15.378;2023-04-03T06:09:01;99238.59;;;1.29;62.85
77279;BME280;66332;50.436;15.378;2023-04-03T06:13:42;99229.50;;;1.36;61.55
77279;BME280;66332;50.436;15.378;2023-04-03T06:18:23;99226.28;;;1.60;63.11
77279;BME280;66332;50.436;15.378;2023-04-03T06:23:04;99242.06;;;1.97;60.56
77279;BME280;66332;50.436;15.378;2023-04-03T06:27:45;99241.47;;;2.19;60.02
77279;BME280;66332;50.436;15.378;2023-04-03T06:32:26;99245.84;;;2.18;59.88
77279;BME280;66332;50.436;15.378;2023-04-03T06:37:16;99229.16;;;2.61;58.25
77279;BME280;66332;50.436;15.378;2023-04-03T06:41:58;99247.63;;;2.30;56.27
77279;BME280;66332;50.436;15.378;2023-04-03T06:46:39;99258.75;;;2.45;56.60
77279;BME280;66332;50.436;15.378;2023-04-03T06:51:24;99268.47;;;3.18;55.71
77279;BME280;66332;50.436;15.378;2023-04-03T06:56:05;99263.69;;;3.25;54.43
77279;BME280;66332;50.436;15.378;2023-04-03T07:00:46;99271.09;;;3.06;54.09
77279;BME280;66332;50.436;15.378;2023-04-03T07:05:27;99270.38;;;3.04;53.34
77279;BME280;66332;50.436;15.378;2023-04-03T07:10:08;99265.88;;;3.18;54.83
77279;BME280;66332;50.436;15.378;2023-04-03T07:14:52;99258.47;;;3.62;55.00
77279;BME280;66332;50.436;15.378;2023-04-03T07:19:33;99252.81;;;3.81;48.50
77279;BME280;66332;50.436;15.378;2023-04-03T07:24:14;99271.00;;;3.81;49.01
77279;BME280;66332;50.436;15.378;2023-04-03T07:28:55;99262.47;;;3.55;48.26
77279;BME280;66332;50.436;15.378;2023-04-03T07:33:36;99285.97;;;4.01;47.78
77279;BME280;66332;50.436;15.378;2023-04-03T07:38:17;99285.31;;;3.86;46.69
77279;BME280;66332;50.436;15.378;2023-04-03T07:42:59;99288.69;;;4.24;45.01
77279;BME280;66332;50.436;15.378;2023-04-03T07:47:40;99286.72;;;3.79;46.30
77279;BME280;66332;50.436;15.378;2023-04-03T07:52:21;99293.78;;;3.77;46.93
77279;BME280;66332;50.436;15.378;2023-04-03T07:57:02;99289.09;;;4.06;45.24
77279;BME280;66332;50.436;15.378;2023-04-03T08:01:43;99284.91;;;3.56;44.78
77279;BME280;66332;50.436;15.378;2023-04-03T08:06:24;99270.66;;;3.61;48.04
77279;BME280;66332;50.436;15.378;2023-04-03T08:11:05;99292.78;;;4.39;44.88
77279;BME280;66332;50.436;15.378;2023-04-03T08:15:46;99288.50;;;4.85;45.50
77279;BME280;66332;50.436;15.378;2023-04-03T08:20:28;99283.81;;;4.54;42.62
77279;BME280;66332;50.436;15.378;2023-04-03T08:25:09;99291.25;;;4.59;44.15
77279;BME280;66332;50.436;15.378;2023-04-03T08:29:50;99294.13;;;3.73;41.37
77279;BME280;66332;50.436;15.378;2023-04-03T08:34:31;99296.44;;;4.94;43.05
77279;BME280;66332;50.436;15.378;2023-04-03T08:39:15;99289.66;;;4.34;40.40
77279;BME280;66332;50.436;15.378;2023-04-03T08:49:00;99299.75;;;5.19;40.53
77279;BME280;66332;50.436;15.378;2023-04-03T08:53:45;99301.53;;;6.07;38.32
77279;BME280;66332;50.436;15.378;2023-04-03T08:58:31;99276.72;;;5.58;40.79
77279;BME280;66332;50.436;15.378;2023-04-03T09:03:19;99299.59;;;6.83;39.44
77279;BME280;66332;50.436;15.378;2023-04-03T09:08:12;99298.63;;;6.21;44.98
77279;BME280;66332;50.436;15.378;2023-04-03T09:22:47;99285.31;;;5.15;38.56
77279;BME280;66332;50.436;15.378;2023-04-03T09:27:28;99306.53;;;5.98;36.76
77279;BME280;66332;50.436;15.378;2023-04-03T09:32:27;99322.72;;;5.59;40.35
77279;BME280;66332;50.436;15.378;2023-04-03T09:37:08;99331.16;;;5.40;38.66
77279;BME280;66332;50.436;15.378;2023-04-03T09:46:42;99334.91;;;6.03;37.39
77279;BME280;66332;50.436;15.378;2023-04-03T09:51:30;99340.34;;;4.76;36.72
77279;BME280;66332;50.436;15.378;2023-04-03T10:01:00;99327.69;;;5.62;37.64
77279;BME280;66332;50.436;15.378;2023-04-03T10:05:42;99316.53;;;5.60;35.22
77279;BME280;66332;50.436;15.378;2023-04-03T10:10:23;99328.25;;;6.31;36.99
77279;BME280;66332;50.436;15.378;2023-04-03T10:15:16;99329.94;;;5.78;35.87
77279;BME280;66332;50.436;15.378;2023-04-03T10:25:03;99326.28;;;5.46;35.60
77279;BME280;66332;50.436;15.378;2023-04-03T10:34:35;99317.84;;;5.65;36.50
77279;BME280;66332;50.436;15.378;2023-04-03T10:54:56;99304.47;;;6.66;37.40
77279;BME280;66332;50.436;15.378;2023-04-03T10:59:46;99297.53;;;6.03;37.86
77279;BME280;66332;50.436;15.378;2023-04-03T11:04:37;99298.31;;;5.37;40.46
77279;BME280;66332;50.436;15.378;2023-04-03T11:09:34;99302.00;;;5.01;38.89
77279;BME280;66332;50.436;15.378;2023-04-03T11:23:57;99299.06;;;6.26;38.77
77279;BME280;66332;50.436;15.378;2023-04-03T11:28:39;99290.84;;;5.55;39.51
77279;BME280;66332;50.436;15.378;2023-04-03T11:38:04;99291.22;;;5.17;38.62
77279;BME280;66332;50.436;15.378;2023-04-03T11:42:49;99293.91;;;4.70;38.78
77279;BME280;66332;50.436;15.378;2023-04-03T11:47:53;99280.63;;;4.62;38.73
77279;BME280;66332;50.436;15.378;2023-04-03T12:02:36;99274.03;;;6.65;38.50
77279;BME280;66332;50.436;15.378;2023-04-03T12:07:18;99280.88;;;5.49;39.34
77279;BME280;66332;50.436;15.378;2023-04-03T12:12:21;99275.44;;;4.96;41.12
77279;BME280;66332;50.436;15.378;2023-04-03T12:17:02;99282.44;;;5.29;38.45
77279;BME280;66332;50.436;15.378;2023-04-03T12:26:31;99268.25;;;6.41;40.10
77279;BME280;66332;50.436;15.378;2023-04-03T12:31:13;99269.00;;;6.32;39.48
77279;BME280;66332;50.436;15.378;2023-04-03T12:40:52;99270.09;;;4.64;40.84
77279;BME280;66332;50.436;15.378;2023-04-03T12:45:44;99268.09;;;4.90;39.47
77279;BME280;66332;50.436;15.378;2023-04-03T12:50:29;99268.34;;;4.87;39.03
77279;BME280;66332;50.436;15.378;2023-04-03T12:55:16;99266.19;;;6.03;39.09
77279;BME280;66332;50.436;15.378;2023-04-03T12:59:58;99266.28;;;5.58;38.76
77279;BME280;66332;50.436;15.378;2023-04-03T13:04:41;99266.59;;;6.19;40.32
77279;BME280;66332;50.436;15.378;2023-04-03T13:14:12;99260.75;;;5.28;39.32
77279;BME280;66332;50.436;15.378;2023-04-03T13:18:55;99251.88;;;4.86;38.21
77279;BME280;66332;50.436;15.378;2023-04-03T13:23:37;99252.47;;;4.67;41.20
77279;BME280;66332;50.436;15.378;2023-04-03T13:28:23;99251.31;;;4.94;40.05
77279;BME280;66332;50.436;15.378;2023-04-03T13:33:26;99257.28;;;6.47;40.05
77279;BME280;66332;50.436;15.378;2023-04-03T13:38:28;99260.16;;;5.36;40.45
77279;BME280;66332;50.436;15.378;2023-04-03T13:43:24;99259.00;;;4.84;39.19
77279;BME280;66332;50.436;15.378;2023-04-03T13:48:10;99250.56;;;4.58;39.00
77279;BME280;66332;50.436;15.378;2023-04-03T13:53:01;99247.25;;;4.67;39.67
77279;BME280;66332;50.436;15.378;2023-04-03T13:57:58;99240.59;;;6.17;36.52
77279;BME280;66332;50.436;15.378;2023-04-03T14:02:40;99252.81;;;6.17;44.27
77279;BME280;66332;50.436;15.378;2023-04-03T14:07:22;99247.72;;;5.72;50.32
77279;BME280;66332;50.436;15.378;2023-04-03T14:12:31;99246.56;;;6.08;46.60
77279;BME280;66332;50.436;15.378;2023-04-03T14:17:17;99243.34;;;5.06;41.90
77279;BME280;66332;50.436;15.378;2023-04-03T14:22:05;99233.84;;;4.49;41.71
77279;BME280;66332;50.436;15.378;2023-04-03T14:26:49;99227.84;;;4.94;42.05
77279;BME280;66332;50.436;15.378;2023-04-03T14:31:31;99242.66;;;4.82;41.93
77279;BME280;66332;50.436;15.378;2023-04-03T14:36:19;99242.16;;;4.77;40.40
77279;BME280;66332;50.436;15.378;2023-04-03T14:41:03;99235.28;;;4.65;39.78
77279;BME280;66332;50.436;15.378;2023-04-03T14:45:49;99233.97;;;4.59;39.50
77279;BME280;66332;50.436;15.378;2023-04-03T14:50:35;99197.34;;;4.27;40.60
77279;BME280;66332;50.436;15.378;2023-04-03T14:55:20;99221.75;;;4.37;39.02
77279;BME280;66332;50.436;15.378;2023-04-03T15:00:03;99196.09;;;3.97;40.75
77279;BME280;66332;50.436;15.378;2023-04-03T15:04:47;99209.25;;;4.07;41.64
77279;BME280;66332;50.436;15.378;2023-04-03T15:09:29;99244.78;;;3.84;41.68
77279;BME280;66332;50.436;15.378;2023-04-03T15:14:11;99229.09;;;3.73;41.66
77279;BME280;66332;50.436;15.378;2023-04-03T15:18:54;99243.69;;;3.86;43.52
77279;BME280;66332;50.436;15.378;2023-04-03T15:23:46;99233.19;;;3.64;42.97
77279;BME280;66332;50.436;15.378;2023-04-03T15:28:45;99235.41;;;3.57;42.80
77279;BME280;66332;50.436;15.378;2023-04-03T15:33:27;99246.38;;;3.74;42.92
77279;BME280;66332;50.436;15.378;2023-04-03T15:38:09;99234.06;;;3.52;42.68
77279;BME280;66332;50.436;15.378;2023-04-03T15:42:50;99241.81;;;3.64;43.79
77279;BME280;66332;50.436;15.378;2023-04-03T15:47:50;99256.75;;;3.50;42.56
77279;BME280;66332;50.436;15.378;2023-04-03T15:52:36;99259.81;;;3.31;43.64
77279;BME280;66332;50.436;15.378;2023-04-03T15:57:42;99258.78;;;3.33;44.78
77279;BME280;66332;50.436;15.378;2023-04-03T16:02:27;99246.19;;;3.40;44.16
77279;BME280;66332;50.436;15.378;2023-04-03T16:07:12;99257.44;;;3.64;44.22
77279;BME280;66332;50.436;15.378;2023-04-03T16:11:58;99230.16;;;3.46;43.24
77279;BME280;66332;50.436;15.378;2023-04-03T16:16:39;99252.22;;;3.64;42.73
77279;BME280;66332;50.436;15.378;2023-04-03T16:21:21;99253.22;;;3.51;43.40
77279;BME280;66332;50.436;15.378;2023-04-03T16:26:03;99258.00;;;3.20;41.99
77279;BME280;66332;50.436;15.378;2023-04-03T16:30:45;99259.22;;;3.27;42.00
77279;BME280;66332;50.436;15.378;2023-04-03T16:35:26;99255.06;;;3.25;41.15
77279;BME280;66332;50.436;15.378;2023-04-03T16:40:08;99259.06;;;3.05;41.68
77279;BME280;66332;50.436;15.378;2023-04-03T16:44:49;99263.81;;;2.98;43.39
77279;BME280;66332;50.436;15.378;2023-04-03T16:49:30;99270.09;;;2.95;44.55
77279;BME280;66332;50.436;15.378;2023-04-03T16:54:14;99262.06;;;2.86;42.98
77279;BME280;66332;50.436;15.378;2023-04-03T16:58:55;99268.53;;;2.93;44.07
77279;BME280;66332;50.436;15.378;2023-04-03T17:03:40;99261.34;;;2.96;43.89
77279;BME280;66332;50.436;15.378;2023-04-03T17:08:21;99264.88;;;2.95;44.64
77279;BME280;66332;50.436;15.378;2023-04-03T17:13:02;99277.34;;;2.90;44.71
77279;BME280;66332;50.436;15.378;2023-04-03T17:17:43;99280.47;;;2.83;44.71
77279;BME280;66332;50.436;15.378;2023-04-03T17:22:24;99278.72;;;2.83;45.01
77279;BME280;66332;50.436;15.378;2023-04-03T17:27:05;99268.31;;;2.58;45.59
77279;BME280;66332;50.436;15.378;2023-04-03T17:31:46;99282.97;;;2.84;45.62
77279;BME280;66332;50.436;15.378;2023-04-03T17:36:29;99284.00;;;2.82;44.24
77279;BME280;66332;50.436;15.378;2023-04-03T17:41:10;99286.16;;;2.49;45.53
77279;BME280;66332;50.436;15.378;2023-04-03T17:45:52;99283.94;;;2.30;45.56
77279;BME280;66332;50.436;15.378;2023-04-03T17:50:33;99254.00;;;1.99;46.43
77279;BME280;66332;50.436;15.378;2023-04-03T17:55:14;99254.41;;;2.06;46.82
77279;BME280;66332;50.436;15.378;2023-04-03T17:59:57;99294.69;;;2.12;48.58
77279;BME280;66332;50.436;15.378;2023-04-03T18:04:38;99288.09;;;2.20;47.20
77279;BME280;66332;50.436;15.378;2023-04-03T18:09:28;99273.75;;;2.15;46.97
77279;BME280;66332;50.436;15.378;2023-04-03T18:14:13;99288.09;;;2.20;47.78
77279;BME280;66332;50.436;15.378;2023-04-03T18:18:56;99279.53;;;2.05;46.16
77279;BME280;66332;50.436;15.378;2023-04-03T18:23:44;99287.28;;;1.93;46.77
77279;BME280;66332;50.436;15.378;2023-04-03T18:28:27;99294.03;;;1.95;44.93
77279;BME280;66332;50.436;15.378;2023-04-03T18:33:09;99275.31;;;1.77;45.91
77279;BME280;66332;50.436;15.378;2023-04-03T18:37:50;99266.38;;;1.81;47.06
77279;BME280;66332;50.436;15.378;2023-04-03T18:42:31;99302.34;;;2.00;47.14
77279;BME280;66332;50.436;15.378;2023-04-03T18:47:12;99301.16;;;1.92;47.77
77279;BME280;66332;50.436;15.378;2023-04-03T18:51:53;99304.91;;;1.73;45.38
77279;BME280;66332;50.436;15.378;2023-04-03T18:56:35;99283.88;;;1.51;46.43
77279;BME280;66332;50.436;15.378;2023-04-03T19:01:17;99323.81;;;1.75;47.32
77279;BME280;66332;50.436;15.378;2023-04-03T19:05:58;99319.47;;;1.76;46.73
77279;BME280;66332;50.436;15.378;2023-04-03T19:10:39;99320.47;;;1.73;48.04
77279;BME280;66332;50.436;15.378;2023-04-03T19:15:22;99321.41;;;1.72;48.49
77279;BME280;66332;50.436;15.378;2023-04-03T19:20:05;99312.47;;;1.91;47.78
77279;BME280;66332;50.436;15.378;2023-04-03T19:24:46;99318.00;;;1.57;49.86
77279;BME280;66332;50.436;15.378;2023-04-03T19:29:27;99296.28;;;1.46;48.94
77279;BME280;66332;50.436;15.378;2023-04-03T19:34:08;99302.22;;;1.89;48.01
77279;BME280;66332;50.436;15.378;2023-04-03T19:38:50;99303.63;;;2.08;48.38
77279;BME280;66332;50.436;15.378;2023-04-03T19:43:30;99295.06;;;1.93;48.92
77279;BME280;66332;50.436;15.378;2023-04-03T19:48:12;99319.47;;;2.03;48.08
77279;BME280;66332;50.436;15.378;2023-04-03T19:52:53;99324.63;;;1.76;47.79
77279;BME280;66332;50.436;15.378;2023-04-03T19:57:37;99329.97;;;1.60;50.79
77279;BME280;66332;50.436;15.378;2023-04-03T20:02:20;99312.50;;;1.49;49.76
77279;BME280;66332;50.436;15.378;2023-04-03T20:07:01;99307.41;;;1.48;50.26
77279;BME280;66332;50.436;15.378;2023-04-03T20:11:43;99292.13;;;1.84;47.64
77279;BME280;66332;50.436;15.378;2023-04-03T20:16:26;99315.72;;;1.53;50.19
77279;BME280;66332;50.436;15.378;2023-04-03T20:21:08;99306.16;;;1.68;49.37
77279;BME280;66332;50.436;15.378;2023-04-03T20:25:51;99303.78;;;1.65;51.82
77279;BME280;66332;50.436;15.378;2023-04-03T20:30:34;99301.88;;;1.25;50.69
77279;BME280;66332;50.436;15.378;2023-04-03T20:35:15;99312.50;;;1.49;49.47
77279;BME280;66332;50.436;15.378;2023-04-03T20:39:56;99302.69;;;1.40;49.80
77279;BME280;66332;50.436;15.378;2023-04-03T20:44:37;99302.22;;;1.48;49.62
77279;BME280;66332;50.436;15.378;2023-04-03T20:49:18;99297.84;;;1.48;47.92
77279;BME280;66332;50.436;15.378;2023-04-03T20:53:59;99299.09;;;1.70;47.62
77279;BME280;66332;50.436;15.378;2023-04-03T20:58:40;99296.22;;;1.33;50.05
77279;BME280;66332;50.436;15.378;2023-04-03T21:03:23;99288.94;;;1.11;51.85
77279;BME280;66332;50.436;15.378;2023-04-03T21:23:47;99306.88;;;1.28;54.04
77279;BME280;66332;50.436;15.378;2023-04-03T21:28:28;99309.09;;;1.20;52.56
77279;BME280;66332;50.436;15.378;2023-04-03T21:33:09;99310.09;;;1.18;54.83
77279;BME280;66332;50.436;15.378;2023-04-03T21:37:50;99313.16;;;1.38;55.36
77279;BME280;66332;50.436;15.378;2023-04-03T21:42:31;99313.66;;;1.58;55.09
77279;BME280;66332;50.436;15.378;2023-04-03T21:47:12;99306.78;;;1.30;54.67
77279;BME280;66332;50.436;15.378;2023-04-03T21:51:53;99304.94;;;1.32;53.45
77279;BME280;66332;50.436;15.378;2023-04-03T21:56:34;99301.78;;;1.12;55.86
77279;BME280;66332;50.436;15.378;2023-04-03T22:01:15;99300.31;;;1.23;53.49
77279;BME280;66332;50.436;15.378;2023-04-03T22:05:57;99316.38;;;1.42;51.10
77279;BME280;66332;50.436;15.378;2023-04-03T22:10:38;99311.19;;;1.42;49.42
77279;BME280;66332;50.436;15.378;2023-04-03T22:15:20;99291.22;;;1.30;49.80
77279;BME280;66332;50.436;15.378;2023-04-03T22:20:01;99306.19;;;1.53;46.96
77279;BME280;66332;50.436;15.378;2023-04-03T22:24:43;99312.88;;;1.29;49.13
77279;BME280;66332;50.436;15.378;2023-04-03T22:29:24;99288.94;;;1.11;49.72
77279;BME280;66332;50.436;15.378;2023-04-03T22:34:05;99303.16;;;1.32;48.98
77279;BME280;66332;50.436;15.378;2023-04-03T22:38:45;99304.09;;;1.31;47.94
77279;BME280;66332;50.436;15.378;2023-04-03T22:43:28;99298.53;;;0.80;51.79
77279;BME280;66332;50.436;15.378;2023-04-03T22:48:08;99309.81;;;0.94;50.74
77279;BME280;66332;50.436;15.378;2023-04-03T22:52:50;99306.31;;;1.09;47.00
77279;BME280;66332;50.436;15.378;2023-04-03T22:57:31;99300.22;;;1.10;46.87
77279;BME280;66332;50.436;15.378;2023-04-03T23:02:11;99297.41;;;1.27;46.98
77279;BME280;66332;50.436;15.378;2023-04-03T23:06:53;99297.91;;;1.20;47.62
77279;BME280;66332;50.436;15.378;2023-04-03T23:11:33;99284.56;;;0.97;47.95
77279;BME280;66332;50.436;15.378;2023-04-03T23:16:14;99286.03;;;1.15;47.59
77279;BME280;66332;50.436;15.378;2023-04-03T23:20:57;99278.94;;;1.05;45.59
77279;BME280;66332;50.436;15.378;2023-04-03T23:25:38;99290.63;;;0.98;46.21
77279;BME280;66332;50.436;15.378;2023-04-03T23:30:20;99292.66;;;1.07;46.14
77279;BME280;66332;50.436;15.378;2023-04-03T23:35:01;99285.13;;;0.88;45.63
77279;BME280;66332;50.436;15.378;2023-04-03T23:39:42;99283.56;;;1.00;44.73
77279;BME280;66332;50.436;15.378;2023-04-03T23:44:23;99283.38;;;1.03;45.84
77279;BME280;66332;50.436;15.378;2023-04-03T23:49:04;99271.00;;;1.08;46.92
77279;BME280;66332;50.436;15.378;2023-04-03T23:53:45;99275.25;;;0.95;48.02
77279;BME280;66332;50.436;15.378;2023-04-03T23:58:26;99256.94;;;0.83;45.83
